createdAt,value
2022-09-13T00:02:26.695Z,10.98
2022-09-13T00:07:31.320Z,10.92
2022-09-13T00:12:37.197Z,11.05
2022-09-13T00:17:41.810Z,10.99
2022-09-13T00:22:46.078Z,10.91
2022-09-13T00:27:51.960Z,10.94
2022-09-13T00:32:56.746Z,10.88
2022-09-13T00:38:02.893Z,10.81
2022-09-13T00:43:18.114Z,10.87
2022-09-13T00:48:26.107Z,10.73
2022-09-13T00:53:32.863Z,10.75
2022-09-13T00:58:42.616Z,10.79
2022-09-13T01:03:47.636Z,10.81
2022-09-13T01:08:55.251Z,10.75
2022-09-13T01:14:02.248Z,10.84
2022-09-13T01:19:06.989Z,10.76
2022-09-13T01:24:39.586Z,10.78
2022-09-13T01:30:10.338Z,10.60
2022-09-13T01:35:23.078Z,10.68
2022-09-13T01:40:46.689Z,10.73
2022-09-13T01:46:02.359Z,10.57
2022-09-13T01:51:13.119Z,10.58
2022-09-13T01:56:25.487Z,10.60
2022-09-13T02:01:38.479Z,10.53
2022-09-13T02:06:48.185Z,10.50
2022-09-13T02:11:58.348Z,10.32
2022-09-13T02:17:08.073Z,10.01
2022-09-13T02:22:18.028Z,9.82
2022-09-13T02:27:28.183Z,9.83
2022-09-13T02:32:40.642Z,9.85
2022-09-13T02:37:50.528Z,9.80
2022-09-13T02:43:00.068Z,9.81
2022-09-13T02:48:12.987Z,9.78
2022-09-13T02:53:25.589Z,9.80
2022-09-13T02:58:36.793Z,9.92
2022-09-13T03:03:43.073Z,9.72
2022-09-13T03:08:47.447Z,9.67
2022-09-13T03:14:07.752Z,9.57
2022-09-13T03:19:46.210Z,9.50
2022-09-13T03:24:59.341Z,9.55
2022-09-13T03:30:07.437Z,9.45
2022-09-13T03:35:25.210Z,9.47
2022-09-13T03:40:41.031Z,9.43
2022-09-13T03:45:50.639Z,9.41
2022-09-13T03:50:57.436Z,9.48
2022-09-13T03:56:02.416Z,9.42
2022-09-13T04:01:06.880Z,9.37
2022-09-13T04:06:12.668Z,9.40
2022-09-13T04:11:17.121Z,9.36
2022-09-13T04:16:21.706Z,9.18
2022-09-13T04:21:28.162Z,9.32
2022-09-13T04:26:32.746Z,9.31
2022-09-13T04:31:37.646Z,9.38
2022-09-13T04:36:43.565Z,9.28
2022-09-13T04:41:50.808Z,9.25
2022-09-13T04:46:56.042Z,9.23
2022-09-13T04:52:01.733Z,9.39
2022-09-13T04:57:07.071Z,9.30
2022-09-13T05:02:11.563Z,9.38
2022-09-13T05:07:19.733Z,9.39
2022-09-13T05:12:23.841Z,9.57
2022-09-13T05:17:28.355Z,9.67
2022-09-13T05:22:34.012Z,9.94
2022-09-13T05:27:38.230Z,10.17
2022-09-13T05:32:43.018Z,10.32
2022-09-13T05:37:50.984Z,10.43
2022-09-13T05:42:55.464Z,10.69
2022-09-13T05:48:00.115Z,10.82
2022-09-13T05:53:06.640Z,10.91
2022-09-13T05:58:11.485Z,10.96
2022-09-13T06:03:15.836Z,11.27
2022-09-13T06:08:22.189Z,11.57
2022-09-13T06:13:27.679Z,11.76
2022-09-13T06:18:32.527Z,11.74
2022-09-13T06:23:38.286Z,11.81
2022-09-13T06:28:44.065Z,12.02
2022-09-13T06:33:50.174Z,12.40
2022-09-13T06:38:57.264Z,13.86
2022-09-13T06:44:03.374Z,15.49
2022-09-13T06:49:09.811Z,18.06
2022-09-13T06:54:16.020Z,16.61
2022-09-13T06:59:20.331Z,17.15
2022-09-13T07:04:25.308Z,18.85
2022-09-13T07:09:31.788Z,18.34
2022-09-13T07:14:35.965Z,18.05
2022-09-13T07:19:40.205Z,19.16
2022-09-13T07:24:46.110Z,19.61
2022-09-13T07:29:50.920Z,19.87
2022-09-13T07:34:55.042Z,21.44
2022-09-13T07:40:01.084Z,22.81
2022-09-13T07:45:07.044Z,21.17
2022-09-13T07:50:12.511Z,19.22
2022-09-13T07:55:18.276Z,21.32
2022-09-13T08:00:22.795Z,21.71
2022-09-13T08:05:27.287Z,20.87
2022-09-13T08:10:33.705Z,20.12
2022-09-13T08:15:38.088Z,19.73
2022-09-13T08:20:42.878Z,18.61
2022-09-13T08:25:48.868Z,18.55
2022-09-13T08:30:53.576Z,19.87
2022-09-13T08:35:58.915Z,19.57
2022-09-13T08:41:22.989Z,18.15
2022-09-13T08:46:30.443Z,19.12
2022-09-13T08:51:39.596Z,18.71
2022-09-13T08:56:52.692Z,18.42
2022-09-13T09:02:07.990Z,18.81
2022-09-13T09:07:17.054Z,18.58
2022-09-13T09:12:34.906Z,18.20
2022-09-13T09:17:48.232Z,19.04
2022-09-13T09:22:55.530Z,19.08
2022-09-13T09:28:03.385Z,19.64
2022-09-13T09:33:24.105Z,19.51
2022-09-13T09:38:41.425Z,18.89
2022-09-13T09:43:54.069Z,19.18
2022-09-13T09:49:28.316Z,19.83
2022-09-13T09:54:32.795Z,19.20
2022-09-13T09:59:38.651Z,19.40
2022-09-13T10:04:44.277Z,19.75
2022-09-13T10:10:02.823Z,19.46
2022-09-13T10:15:18.580Z,20.13
2022-09-13T10:20:27.908Z,19.70
2022-09-13T10:25:33.765Z,20.74
2022-09-13T10:30:43.347Z,19.80
2022-09-13T10:35:49.903Z,21.15
2022-09-13T10:40:54.882Z,20.39
2022-09-13T10:46:03.895Z,21.13
2022-09-13T12:39:31.493Z,19.33
2022-09-13T12:44:49.853Z,19.92
2022-09-13T12:50:43.527Z,19.49
2022-09-13T12:56:05.006Z,19.78
2022-09-13T13:01:16.487Z,19.66
2022-09-13T13:06:29.948Z,20.02
2022-09-13T13:11:47.937Z,19.85
2022-09-13T13:16:53.848Z,19.52
2022-09-13T13:21:58.832Z,19.68
2022-09-13T13:27:37.294Z,19.46
2022-09-13T13:33:07.162Z,19.44
2022-09-13T13:38:18.862Z,19.06
2022-09-13T13:43:34.664Z,19.39
2022-09-13T13:48:42.360Z,19.36
2022-09-13T13:53:59.756Z,19.47
2022-09-13T13:59:15.485Z,19.66
2022-09-13T14:04:48.561Z,19.52
2022-09-13T14:10:02.912Z,19.36
2022-09-13T14:15:29.875Z,19.40
2022-09-13T14:20:33.976Z,19.32
2022-09-13T14:25:38.935Z,19.61
2022-09-13T14:30:47.963Z,19.91
2022-09-13T14:36:00.749Z,19.48
2022-09-13T14:41:15.430Z,19.86
2022-09-13T14:46:27.222Z,19.32
2022-09-13T14:51:38.846Z,19.00
2022-09-13T14:56:47.608Z,18.94
2022-09-13T15:01:54.612Z,18.77
2022-09-13T15:07:10.984Z,18.87
2022-09-13T15:12:26.763Z,18.93
2022-09-13T15:17:32.805Z,18.98
2022-09-13T15:22:37.647Z,19.10
2022-09-13T15:27:48.098Z,19.19
2022-09-13T15:33:07.010Z,18.94
2022-09-13T15:38:24.616Z,18.76
2022-09-13T15:43:30.254Z,18.90
2022-09-13T15:48:37.564Z,18.72
2022-09-13T15:53:44.825Z,18.50
2022-09-13T15:58:49.791Z,18.58
2022-09-13T16:03:56.123Z,18.27
2022-09-13T16:09:00.793Z,18.38
2022-09-13T16:14:04.850Z,18.46
2022-09-13T16:19:15.061Z,18.20
2022-09-13T16:24:19.323Z,18.10
2022-09-13T16:29:24.227Z,18.09
2022-09-13T16:34:29.952Z,17.87
2022-09-13T16:39:34.713Z,17.88
2022-09-13T16:44:39.169Z,17.79
2022-09-13T16:49:46.404Z,17.79
2022-09-13T16:54:52.674Z,17.59
2022-09-13T16:59:58.777Z,17.63
2022-09-13T17:05:05.630Z,17.51
2022-09-13T17:10:12.729Z,17.30
2022-09-13T17:15:17.450Z,17.44
2022-09-13T17:20:23.602Z,17.41
2022-09-13T17:25:28.259Z,17.09
2022-09-13T17:30:32.609Z,17.01
2022-09-13T17:35:38.739Z,16.88
2022-09-13T17:40:43.596Z,16.85
2022-09-13T17:45:47.808Z,16.75
2022-09-13T17:50:53.526Z,16.61
2022-09-13T17:55:58.216Z,16.69
2022-09-13T18:01:04.691Z,16.68
2022-09-13T18:06:14.426Z,16.55
2022-09-13T19:38:00.993Z,16.29
2022-09-13T19:43:05.639Z,16.23
2022-09-13T19:48:37.822Z,16.25
2022-09-13T19:53:55.931Z,16.15
2022-09-13T19:59:02.697Z,16.09
2022-09-13T20:04:09.039Z,15.80
2022-09-13T20:09:17.487Z,15.93
2022-09-13T20:14:22.662Z,15.92
2022-09-13T20:19:41.544Z,15.98
2022-09-13T20:24:50.122Z,15.97
2022-09-13T20:29:56.124Z,15.96
2022-09-13T20:35:01.394Z,15.96
2022-09-13T20:40:09.931Z,15.85
2022-09-13T20:45:17.113Z,16.00
2022-09-13T20:50:21.506Z,15.89
2022-09-13T20:55:28.008Z,15.96
2022-09-13T21:00:32.975Z,15.93
2022-09-13T21:05:38.905Z,16.00
2022-09-13T21:10:44.757Z,15.96
2022-09-13T21:15:50.862Z,15.85
2022-09-13T21:20:59.483Z,15.97
2022-09-13T21:26:06.516Z,15.86
2022-09-13T21:31:19.503Z,15.83
2022-09-13T21:36:27.121Z,15.75
2022-09-13T21:41:33.505Z,15.73
2022-09-13T21:46:39.874Z,15.71
2022-09-13T21:51:47.055Z,15.72
2022-09-13T21:56:55.289Z,15.70
2022-09-13T22:02:00.571Z,15.68
2022-09-13T22:07:06.300Z,15.59
2022-09-13T22:12:12.268Z,15.71
2022-09-13T22:17:17.244Z,15.76
2022-09-13T22:22:21.313Z,15.87
2022-09-13T22:27:27.299Z,15.90
2022-09-13T22:32:31.718Z,16.03
2022-09-13T22:37:36.489Z,15.86
2022-09-13T22:42:42.611Z,15.92
2022-09-13T22:47:47.063Z,15.86
2022-09-13T22:52:52.072Z,15.67
2022-09-13T22:57:57.964Z,15.81
2022-09-13T23:03:02.312Z,15.92
2022-09-13T23:08:07.405Z,15.98
2022-09-13T23:13:13.488Z,16.11
2022-09-13T23:18:18.491Z,15.91
2022-09-13T23:23:23.044Z,15.88
2022-09-13T23:28:31.432Z,15.95
2022-09-13T23:33:35.676Z,15.83
2022-09-13T23:38:39.965Z,15.96
2022-09-13T23:43:46.537Z,16.00
2022-09-13T23:48:51.920Z,15.89
2022-09-13T23:53:58.548Z,15.95
2022-09-13T23:59:05.822Z,15.94
